createdAt,value
2022-12-05T05:36:26.400Z,102808.31
2022-12-05T05:37:33.008Z,102802.38
2022-12-05T05:38:43.769Z,102811.06
2022-12-05T05:39:55.934Z,102815.03
2022-12-05T05:41:04.313Z,102811.34
2022-12-05T05:42:13.163Z,102803.38
2022-12-05T05:43:16.482Z,102806.03
2022-12-05T05:44:26.241Z,102813.00
2022-12-05T05:45:31.651Z,102809.94
2022-12-05T05:46:35.728Z,102806.59
2022-12-05T05:47:45.740Z,102810.38
2022-12-05T05:48:58.546Z,102800.28
2022-12-05T05:50:21.120Z,102803.97
2022-12-05T05:51:31.161Z,102800.97
2022-12-05T05:52:44.214Z,102795.34
2022-12-05T05:53:52.746Z,102796.94
2022-12-05T05:54:56.655Z,102800.84
2022-12-05T05:56:05.695Z,102799.28
2022-12-05T05:57:20.252Z,102805.16
2022-12-05T05:58:23.650Z,102805.91
2022-12-05T05:59:29.766Z,102787.94
2022-12-05T06:00:33.263Z,102790.91
2022-12-05T06:01:44.014Z,102797.53
2022-12-05T06:02:48.053Z,102802.56
2022-12-05T06:03:51.338Z,102802.34
2022-12-05T06:04:55.721Z,102803.31
2022-12-05T06:06:01.843Z,102797.88
2022-12-05T06:07:05.204Z,102799.19
2022-12-05T06:08:11.930Z,102795.84
2022-12-05T06:09:25.685Z,102797.19
2022-12-05T06:10:31.386Z,102802.88
2022-12-05T06:11:37.654Z,102796.50
2022-12-05T06:12:43.995Z,102786.50
2022-12-05T06:13:46.966Z,102787.38
2022-12-05T06:14:51.668Z,102783.94
2022-12-05T06:15:55.089Z,102774.69
2022-12-05T06:16:57.929Z,102785.69
2022-12-05T06:18:20.284Z,102785.97
2022-12-05T06:19:26.873Z,102786.91
2022-12-05T06:20:39.999Z,102783.00
2022-12-05T06:21:54.185Z,102787.91
2022-12-05T06:23:02.191Z,102785.38
2022-12-05T06:24:07.528Z,102779.41
2022-12-05T06:25:11.424Z,102783.13
2022-12-05T06:26:19.506Z,102780.75
2022-12-05T06:27:25.720Z,102785.88
2022-12-05T06:28:29.353Z,102785.88
2022-12-05T06:29:34.009Z,102787.94
2022-12-05T06:30:38.675Z,102790.13
2022-12-05T06:31:41.769Z,102780.31
2022-12-05T06:32:43.803Z,102786.59
2022-12-05T06:33:46.506Z,102790.63
2022-12-05T06:34:48.501Z,102789.44
2022-12-05T06:36:02.257Z,102786.28
2022-12-05T06:37:05.646Z,102788.72
2022-12-05T06:38:07.935Z,102780.56
2022-12-05T06:39:10.017Z,102780.56
2022-12-05T06:40:13.294Z,102793.50
2022-12-05T06:41:19.361Z,102788.88
2022-12-05T06:42:22.929Z,102790.31
2022-12-05T06:43:24.948Z,102783.75
2022-12-05T06:44:29.028Z,102787.63
2022-12-05T06:45:32.111Z,102784.09
2022-12-05T06:46:34.051Z,102786.06
2022-12-05T06:47:36.032Z,102784.56
2022-12-05T06:48:38.341Z,102780.38
2022-12-05T06:49:40.360Z,102781.84
2022-12-05T06:50:52.317Z,102785.53
2022-12-05T06:51:54.669Z,102779.16
2022-12-05T06:52:58.239Z,102780.13
2022-12-05T06:54:00.223Z,102766.28
2022-12-05T06:55:02.351Z,102778.03
2022-12-05T06:56:08.377Z,102773.75
2022-12-05T06:57:10.543Z,102778.84
2022-12-05T06:58:12.688Z,102773.56
2022-12-05T06:59:14.701Z,102775.25
2022-12-05T07:00:38.098Z,102771.44
2022-12-05T07:01:43.104Z,102774.16
2022-12-05T07:02:46.618Z,102769.72
2022-12-05T07:03:49.706Z,102770.09
2022-12-05T07:04:52.386Z,102769.44
2022-12-05T07:05:54.351Z,102772.84
2022-12-05T07:06:59.171Z,102775.31
2022-12-05T07:08:01.170Z,102775.22
2022-12-05T07:09:04.746Z,102774.69
2022-12-05T07:10:08.986Z,102770.63
2022-12-05T07:11:11.123Z,102779.19
2022-12-05T07:12:14.786Z,102772.34
2022-12-05T07:13:19.783Z,102768.00
2022-12-05T07:15:43.601Z,102769.94
2022-12-05T07:16:46.191Z,102770.69
2022-12-05T07:17:48.303Z,102766.75
2022-12-05T07:18:50.451Z,102763.28
2022-12-05T07:19:53.360Z,102773.00
2022-12-05T07:21:15.707Z,102766.63
2022-12-05T07:22:19.351Z,102763.25
2022-12-05T07:23:21.913Z,102758.91
2022-12-05T07:24:23.888Z,102759.47
2022-12-05T07:25:27.107Z,102763.09
2022-12-05T07:26:29.580Z,102760.16
2022-12-05T07:27:31.683Z,102757.28
2022-12-05T07:28:36.429Z,102762.63
2022-12-05T07:29:38.396Z,102758.94
2022-12-05T07:30:40.860Z,102754.78
2022-12-05T07:31:43.001Z,102753.00
2022-12-05T07:32:45.097Z,102752.75
2022-12-05T07:33:47.011Z,102753.13
2022-12-05T07:34:54.706Z,102748.16
2022-12-05T07:36:02.707Z,102753.59
2022-12-05T07:37:05.359Z,102746.56
2022-12-05T07:38:09.915Z,102746.63
2022-12-05T07:39:12.589Z,102748.72
2022-12-05T07:40:14.928Z,102753.50
2022-12-05T07:41:23.365Z,102754.38
2022-12-05T07:42:25.585Z,102748.56
2022-12-05T07:43:27.661Z,102753.50
2022-12-05T07:44:29.632Z,102751.84
2022-12-05T07:45:34.774Z,102739.81
2022-12-05T07:46:37.781Z,102741.78
2022-12-05T07:47:41.135Z,102743.78
2022-12-05T07:48:43.650Z,102742.75
2022-12-05T07:49:45.595Z,102732.38
2022-12-05T07:50:47.717Z,102741.13
2022-12-05T07:51:49.732Z,102736.34
2022-12-05T07:52:54.122Z,102740.44
2022-12-05T07:53:56.757Z,102749.34
2022-12-05T07:54:59.012Z,102739.22
2022-12-05T07:56:06.167Z,102736.09
2022-12-05T07:57:08.271Z,102738.09
2022-12-05T07:58:10.333Z,102735.72
2022-12-05T07:59:14.819Z,102727.00
2022-12-05T08:00:20.128Z,102727.59
2022-12-05T08:01:26.561Z,102723.28
2022-12-05T08:02:29.983Z,102722.91
2022-12-05T08:03:32.026Z,102719.38
2022-12-05T08:04:34.022Z,102717.09
2022-12-05T08:05:36.042Z,102721.44
2022-12-05T08:06:39.744Z,102718.94
2022-12-05T08:07:42.290Z,102714.59
2022-12-05T08:08:50.080Z,102715.63
2022-12-05T08:09:52.114Z,102705.47
2022-12-05T08:10:55.559Z,102704.19
2022-12-05T08:11:58.992Z,102712.81
2022-12-05T08:13:01.275Z,102709.47
2022-12-05T08:14:06.562Z,102710.72
2022-12-05T08:15:09.411Z,102716.69
2022-12-05T08:16:14.524Z,102711.47
2022-12-05T08:17:16.813Z,102711.84
2022-12-05T08:18:21.923Z,102712.31
2022-12-05T08:19:26.492Z,102713.28
2022-12-05T08:20:30.721Z,102707.75
2022-12-05T08:21:33.314Z,102706.53
2022-12-05T08:22:36.561Z,102704.19
2022-12-05T08:23:39.785Z,102705.97
2022-12-05T08:24:42.908Z,102700.25
2022-12-05T08:25:46.152Z,102706.38
2022-12-05T08:26:49.323Z,102700.59
2022-12-05T08:27:51.752Z,102696.59
2022-12-05T08:28:57.870Z,102700.72
2022-12-05T08:30:00.720Z,102701.84
2022-12-05T08:31:08.747Z,102695.13
2022-12-05T08:32:10.789Z,102689.84
2022-12-05T08:33:15.042Z,102696.50
2022-12-05T08:34:23.387Z,102685.13
2022-12-05T08:35:25.545Z,102684.53
2022-12-05T08:36:29.687Z,102685.69
2022-12-05T08:37:31.744Z,102676.81
2022-12-05T08:38:34.494Z,102676.34
2022-12-05T08:39:38.900Z,102682.66
2022-12-05T08:40:41.121Z,102684.47
2022-12-05T08:41:45.115Z,102677.44
2022-12-05T08:42:47.125Z,102677.22
2022-12-05T08:43:49.573Z,102675.88
2022-12-05T08:44:51.637Z,102679.50
2022-12-05T08:45:54.309Z,102673.44
2022-12-05T08:46:56.742Z,102669.72
2022-12-05T08:47:58.754Z,102677.44
2022-12-05T08:49:00.890Z,102670.91
2022-12-05T08:50:03.336Z,102675.38
2022-12-05T08:51:10.550Z,102671.50
2022-12-05T08:52:12.535Z,102671.31
2022-12-05T08:53:16.257Z,102679.47
2022-12-05T08:54:19.608Z,102666.72
2022-12-05T08:55:21.568Z,102671.03
2022-12-05T08:56:27.502Z,102675.22
2022-12-05T08:57:29.810Z,102664.06
2022-12-05T08:58:32.490Z,102667.97
2022-12-05T08:59:34.719Z,102665.31
2022-12-05T09:00:36.729Z,102672.75
2022-12-05T09:01:39.725Z,102669.88
2022-12-05T09:02:43.410Z,102669.91
2022-12-05T09:03:48.200Z,102660.38
2022-12-05T09:04:54.033Z,102658.09
2022-12-05T09:06:06.316Z,102672.34
2022-12-05T09:07:09.578Z,102662.75
2022-12-05T09:08:12.616Z,102666.69
2022-12-05T09:09:15.773Z,102656.50
2022-12-05T09:10:19.212Z,102665.78
2022-12-05T09:11:24.875Z,102659.94
2022-12-05T09:12:26.919Z,102660.97
2022-12-05T09:26:04.155Z,102642.38
2022-12-05T09:27:07.410Z,102643.53
2022-12-05T09:28:11.177Z,102636.22
2022-12-05T09:29:17.153Z,102635.28
2022-12-05T09:30:21.870Z,102630.72
2022-12-05T09:31:27.170Z,102635.50
2022-12-05T09:38:34.611Z,102622.69
2022-12-05T09:39:40.317Z,102632.22
2022-12-05T09:40:48.656Z,102616.06
2022-12-05T09:42:27.941Z,102627.03
2022-12-05T09:44:15.556Z,102628.88
2022-12-05T09:45:56.860Z,102617.75
2022-12-05T10:12:27.675Z,102583.69
2022-12-05T10:14:01.555Z,102582.13
2022-12-05T10:15:45.928Z,102579.22
2022-12-05T10:17:05.057Z,102575.91
2022-12-05T10:18:38.938Z,102582.13
2022-12-05T10:19:59.452Z,102584.38
2022-12-05T10:21:17.472Z,102580.44
2022-12-05T10:23:57.886Z,102579.63
2022-12-05T10:25:04.114Z,102575.06
2022-12-05T10:26:10.408Z,102573.03
2022-12-05T10:27:39.971Z,102569.50
2022-12-05T10:29:05.761Z,102570.31
2022-12-05T10:30:34.684Z,102568.84
2022-12-05T10:32:06.903Z,102560.56
2022-12-05T10:33:25.844Z,102561.41
2022-12-05T10:34:42.602Z,102557.63
2022-12-05T10:35:48.789Z,102558.50
2022-12-05T10:38:59.839Z,102554.38
2022-12-05T10:40:03.093Z,102558.56
2022-12-05T10:41:09.851Z,102562.06
2022-12-05T10:42:30.074Z,102563.09
2022-12-05T10:43:37.287Z,102564.78
2022-12-05T10:44:39.563Z,102563.09
2022-12-05T10:45:45.659Z,102560.41
2022-12-05T10:46:48.846Z,102557.31
2022-12-05T10:51:39.405Z,102553.78
2022-12-05T10:56:42.256Z,102553.56
2022-12-05T10:58:24.321Z,102557.72
2022-12-05T10:59:57.899Z,102558.56
2022-12-05T11:01:28.582Z,102556.03
2022-12-05T11:02:42.368Z,102555.00
2022-12-05T11:04:42.967Z,102561.44
2022-12-05T11:07:39.460Z,102554.00
2022-12-05T11:09:05.802Z,102552.94
2022-12-05T11:10:29.382Z,102552.53
2022-12-05T11:12:27.490Z,102548.81
2022-12-05T11:14:00.154Z,102543.78
2022-12-05T11:15:27.812Z,102544.22
2022-12-05T11:16:43.292Z,102540.31
2022-12-05T11:17:57.846Z,102545.28
2022-12-05T11:19:49.643Z,102551.06
2022-12-05T11:21:31.694Z,102538.63
2022-12-05T11:31:20.674Z,102519.94
2022-12-05T11:32:31.706Z,102527.63
2022-12-05T11:33:43.180Z,102522.03
2022-12-05T11:35:14.954Z,102526.41
2022-12-05T11:36:22.884Z,102524.72
2022-12-05T11:37:33.882Z,102530.53
2022-12-05T11:38:43.579Z,102522.41
2022-12-05T11:39:49.093Z,102516.66
2022-12-05T12:01:56.071Z,102499.72
2022-12-05T12:03:33.100Z,102498.03
2022-12-05T12:05:17.059Z,102497.66
2022-12-05T12:06:48.072Z,102492.25
2022-12-05T12:08:06.018Z,102490.22
2022-12-05T12:09:41.484Z,102496.41
2022-12-05T12:10:54.959Z,102492.31
2022-12-05T12:11:57.235Z,102483.25
2022-12-05T12:13:37.387Z,102490.44
2022-12-05T12:14:45.186Z,102483.38
2022-12-05T12:16:18.164Z,102480.31
2022-12-05T12:17:46.244Z,102482.78
2022-12-05T12:19:07.837Z,102478.66
2022-12-05T12:20:35.777Z,102477.78
2022-12-05T12:21:45.891Z,102475.75
2022-12-05T12:23:26.490Z,102479.47
2022-12-05T12:24:45.379Z,102471.78
2022-12-05T12:26:21.423Z,102467.47
2022-12-05T12:27:49.363Z,102469.75
2022-12-05T12:29:15.624Z,102463.38
2022-12-05T12:31:13.717Z,102463.75
2022-12-05T12:32:35.709Z,102463.13
2022-12-05T12:34:18.072Z,102462.94
2022-12-05T12:35:32.164Z,102458.00
2022-12-05T12:37:27.387Z,102452.66
2022-12-05T12:39:06.339Z,102446.44
2022-12-05T12:40:23.250Z,102451.00
2022-12-05T12:41:54.915Z,102448.72
2022-12-05T12:44:10.249Z,102455.13
2022-12-05T12:45:25.855Z,102452.03
2022-12-05T12:46:37.568Z,102453.47
2022-12-05T12:48:20.305Z,102445.41
2022-12-05T12:49:48.210Z,102444.59
2022-12-05T12:50:59.954Z,102450.19
2022-12-05T12:52:11.121Z,102448.94
2022-12-05T12:53:34.597Z,102440.66
2022-12-05T12:55:11.948Z,102455.94
2022-12-05T12:56:29.623Z,102450.19
2022-12-05T12:58:04.500Z,102448.50
2022-12-05T12:59:37.577Z,102442.75
2022-12-05T13:00:48.866Z,102449.16
2022-12-05T13:02:28.154Z,102439.41
2022-12-05T13:03:51.567Z,102446.03
2022-12-05T13:08:02.697Z,102440.47
2022-12-05T13:44:06.630Z,102414.44
2022-12-05T13:45:23.217Z,102421.28
2022-12-05T13:46:45.971Z,102410.31
2022-12-05T13:48:29.209Z,102410.72
2022-12-05T13:49:47.374Z,102415.50
2022-12-05T13:51:28.447Z,102411.34
2022-12-05T13:52:49.205Z,102401.63
2022-12-05T13:54:34.388Z,102409.25
2022-12-05T13:55:58.677Z,102406.41
2022-12-05T13:57:04.240Z,102407.22
2022-12-05T13:58:22.845Z,102403.28
2022-12-05T14:00:14.957Z,102401.63
2022-12-05T14:01:55.963Z,102403.69
2022-12-05T14:03:05.947Z,102408.47
2022-12-05T14:04:56.654Z,102408.47
2022-12-05T14:06:15.399Z,102399.78
2022-12-05T14:08:03.761Z,102399.16
2022-12-05T14:10:03.070Z,102397.91
2022-12-05T14:11:14.884Z,102397.50
2022-12-05T14:12:30.604Z,102395.22
2022-12-05T14:13:43.550Z,102397.31
2022-12-05T14:15:01.943Z,102401.19
2022-12-05T14:16:32.748Z,102392.53
2022-12-05T14:17:54.552Z,102393.97
2022-12-05T14:19:34.529Z,102386.13
2022-12-05T14:21:12.904Z,102378.09
2022-12-05T14:23:05.041Z,102375.41
2022-12-05T14:24:48.648Z,102373.13
2022-12-05T14:26:11.395Z,102374.56
2022-12-05T14:27:45.270Z,102380.56
2022-12-05T14:30:56.588Z,102379.53
2022-12-05T14:36:31.415Z,102365.91
2022-12-05T14:38:06.985Z,102356.00
2022-12-05T14:39:33.818Z,102352.66
2022-12-05T14:43:22.641Z,102354.13
2022-12-05T14:44:35.886Z,102345.66
2022-12-05T14:49:57.607Z,102341.94
2022-12-05T14:52:14.439Z,102339.06
2022-12-05T14:53:55.342Z,102345.44
2022-12-05T14:57:13.471Z,102343.19
2022-12-05T14:59:08.636Z,102337.63
2022-12-05T15:00:33.103Z,102341.53
2022-12-05T15:05:51.795Z,102329.97
2022-12-05T15:09:35.386Z,102332.44
2022-12-05T15:10:46.325Z,102334.53
2022-12-05T15:12:34.165Z,102328.31
2022-12-05T15:14:03.727Z,102328.31
2022-12-05T15:15:49.838Z,102327.06
2022-12-05T15:17:27.468Z,102324.16
2022-12-05T15:19:10.585Z,102325.03
2022-12-05T15:21:27.165Z,102314.66
2022-12-05T15:22:49.383Z,102316.72
2022-12-05T15:33:50.019Z,102317.34
2022-12-05T15:38:09.443Z,102301.63
2022-12-05T15:39:28.309Z,102301.66
2022-12-05T15:51:17.919Z,102277.44
2022-12-05T15:52:50.288Z,102279.75
2022-12-05T15:54:45.873Z,102280.75
2022-12-05T15:56:19.570Z,102276.84
2022-12-05T15:58:24.106Z,102283.03
2022-12-05T15:59:41.391Z,102283.63
2022-12-05T16:01:25.399Z,102273.94
2022-12-05T16:03:31.949Z,102285.28
2022-12-05T16:05:03.121Z,102276.16
2022-12-05T16:06:39.137Z,102274.97
2022-12-05T16:07:59.877Z,102280.94
2022-12-05T16:09:36.346Z,102282.97
2022-12-05T16:10:46.715Z,102279.47
2022-12-05T16:12:25.083Z,102281.09
2022-12-05T16:13:35.627Z,102277.81
2022-12-05T16:15:03.894Z,102274.09
2022-12-05T16:16:43.560Z,102261.44
2022-12-05T16:17:57.425Z,102270.97
2022-12-05T16:19:15.679Z,102265.41
2022-12-05T16:22:26.681Z,102260.84
2022-12-05T16:23:58.676Z,102267.25
2022-12-05T16:25:12.472Z,102259.59
2022-12-05T16:26:34.752Z,102252.41
2022-12-05T16:27:53.387Z,102249.06
2022-12-05T16:29:01.903Z,102249.28
2022-12-05T16:30:13.540Z,102248.88
2022-12-05T16:31:18.995Z,102247.84
2022-12-05T16:32:31.835Z,102247.25
2022-12-05T16:33:40.277Z,102249.91
2022-12-05T16:35:05.220Z,102235.28
2022-12-05T16:36:22.303Z,102238.16
2022-12-05T16:37:30.171Z,102240.41
2022-12-05T16:39:20.171Z,102240.25
2022-12-05T16:40:23.904Z,102241.91
2022-12-05T16:41:41.618Z,102238.53
2022-12-05T16:42:47.473Z,102240.41
2022-12-05T16:43:53.188Z,102238.53
2022-12-05T16:45:06.668Z,102232.75
2022-12-05T16:46:14.905Z,102232.38
2022-12-05T16:47:28.346Z,102229.69
2022-12-05T16:48:41.982Z,102230.31
2022-12-05T16:49:47.828Z,102233.84
2022-12-05T16:51:14.996Z,102230.69
2022-12-05T16:52:22.044Z,102235.69
2022-12-05T16:53:36.688Z,102243.72
2022-12-05T16:54:43.594Z,102242.47
2022-12-05T16:57:31.604Z,102234.25
2022-12-05T16:58:43.885Z,102238.22
2022-12-05T16:59:56.779Z,102233.84
2022-12-05T17:01:09.023Z,102238.81
2022-12-05T17:02:44.265Z,102239.41
2022-12-05T17:04:20.169Z,102236.56
2022-12-05T17:05:48.040Z,102229.91
2022-12-05T17:07:20.793Z,102234.47
2022-12-05T17:08:30.472Z,102231.16
2022-12-05T17:09:48.201Z,102229.09
2022-12-05T17:11:25.409Z,102225.00
2022-12-05T17:12:50.677Z,102228.28
2022-12-05T17:16:11.128Z,102220.84
2022-12-05T17:17:18.404Z,102220.00
2022-12-05T17:18:30.954Z,102226.22
2022-12-05T17:19:34.773Z,102217.16
2022-12-05T17:20:42.766Z,102218.78
2022-12-05T17:21:46.446Z,102214.63
2022-12-05T17:23:04.961Z,102218.59
2022-12-05T17:24:31.757Z,102216.31
2022-12-05T17:25:47.571Z,102215.50
2022-12-05T17:27:09.915Z,102208.91
2022-12-05T17:28:37.269Z,102218.59
2022-12-05T17:46:38.529Z,102205.13
2022-12-05T17:56:08.594Z,102209.69
2022-12-05T18:05:30.585Z,102208.50
2022-12-05T18:07:02.988Z,102196.91
2022-12-05T18:08:10.593Z,102207.22
2022-12-05T18:09:35.898Z,102202.50
2022-12-05T20:57:29.293Z,102108.38
2022-12-05T21:27:17.863Z,102072.34
